KAPF/APF METAR and TAF weather

Enter ICAO airport designator
Station Type Date Time Source
KAPF METAR 2019/04/25 20:53 UTC NOAA

KAPF 252053Z 20008KT 10SM CLR 27/22 A2996 RMK AO2 SLP145 T02670217 56011


Station Type Date Time Source
KAPF Decoded METAR 2019/04/25 20:53 UTC NOAA

NAPLES MUNICIPAL AIRPORT, FL, United States (KAPF) 26-09N 081-46W
Apr 25, 2019 - 04:53 PM EDT / 2019.04.25 2053 UTC
Wind: from the SSW (200 degrees) at 9 MPH (8 KT):0
Visibility: 10 mile(s):0
Sky conditions: clear
Temperature: 80.1 F (26.7 C)
Dew Point: 71.1 F (21.7 C)
Relative Humidity: 74%
Pressure (altimeter): 29.96 in. Hg (1014 hPa)
Pressure tendency: 0.03 inches (1.1 hPa) lower than three hours ago
ob: KAPF 252053Z 20008KT 10SM CLR 27/22 A2996 RMK AO2 SLP145 T02670217 56011
cycle: 21

Station Type Date Time Source
KAPF TAF 2019/04/25 21:12 UTC NOAA

TAF
AMD KAPF 252111Z 2521/2618 20008KT P6SM FEW050 SCT250
FM260100 16006KT P6SM FEW050 BKN250
FM261400 22012KT P6SM SCT030 BKN250

Example: see airport list